sensor_id;sensor_type;location;lat;lon;timestamp;temperature;humidity
65239;SHT30;51827;51.186;6.926;2024-01-27T00:00:20;19.45;48.74
65239;SHT30;51827;51.186;6.926;2024-01-27T00:01:20;19.45;48.73
65239;SHT30;51827;51.186;6.926;2024-01-27T00:02:20;19.43;48.69
65239;SHT30;51827;51.186;6.926;2024-01-27T00:03:21;19.46;48.75
65239;SHT30;51827;51.186;6.926;2024-01-27T00:04:21;19.43;48.73
65239;SHT30;51827;51.186;6.926;2024-01-27T00:05:21;19.42;48.71
65239;SHT30;51827;51.186;6.926;2024-01-27T00:06:21;19.43;48.70
65239;SHT30;51827;51.186;6.926;2024-01-27T00:07:22;19.42;48.76
65239;SHT30;51827;51.186;6.926;2024-01-27T00:08:22;19.42;48.72
65239;SHT30;51827;51.186;6.926;2024-01-27T00:09:22;19.45;48.66
65239;SHT30;51827;51.186;6.926;2024-01-27T00:10:22;19.43;48.73
65239;SHT30;51827;51.186;6.926;2024-01-27T00:11:23;19.43;48.66
65239;SHT30;51827;51.186;6.926;2024-01-27T00:12:23;19.42;48.71
65239;SHT30;51827;51.186;6.926;2024-01-27T00:13:23;19.45;48.67
65239;SHT30;51827;51.186;6.926;2024-01-27T00:14:23;19.43;48.64
65239;SHT30;51827;51.186;6.926;2024-01-27T00:15:24;19.43;48.68
65239;SHT30;51827;51.186;6.926;2024-01-27T00:16:24;19.42;48.73
65239;SHT30;51827;51.186;6.926;2024-01-27T00:17:24;19.42;48.71
65239;SHT30;51827;51.186;6.926;2024-01-27T00:18:24;19.42;48.73
65239;SHT30;51827;51.186;6.926;2024-01-27T00:19:25;19.43;48.68
65239;SHT30;51827;51.186;6.926;2024-01-27T00:20:25;19.40;48.70
65239;SHT30;51827;51.186;6.926;2024-01-27T00:21:25;19.42;48.67
65239;SHT30;51827;51.186;6.926;2024-01-27T00:22:26;19.42;48.69
65239;SHT30;51827;51.186;6.926;2024-01-27T00:23:26;19.42;48.65
65239;SHT30;51827;51.186;6.926;2024-01-27T00:24:26;19.43;48.65
65239;SHT30;51827;51.186;6.926;2024-01-27T00:25:26;19.43;48.65
65239;SHT30;51827;51.186;6.926;2024-01-27T00:26:27;19.42;48.69
65239;SHT30;51827;51.186;6.926;2024-01-27T00:27:27;19.43;48.69
65239;SHT30;51827;51.186;6.926;2024-01-27T00:28:27;19.42;48.65
65239;SHT30;51827;51.186;6.926;2024-01-27T00:29:27;19.42;48.69
65239;SHT30;51827;51.186;6.926;2024-01-27T00:30:28;19.42;48.65
65239;SHT30;51827;51.186;6.926;2024-01-27T00:31:28;19.40;48.69
65239;SHT30;51827;51.186;6.926;2024-01-27T00:32:28;19.42;48.68
65239;SHT30;51827;51.186;6.926;2024-01-27T00:33:28;19.40;48.68
65239;SHT30;51827;51.186;6.926;2024-01-27T00:34:29;19.39;48.64
65239;SHT30;51827;51.186;6.926;2024-01-27T00:35:29;19.40;48.72
65239;SHT30;51827;51.186;6.926;2024-01-27T00:36:29;19.40;48.74
65239;SHT30;51827;51.186;6.926;2024-01-27T00:37:30;19.42;48.70
65239;SHT30;51827;51.186;6.926;2024-01-27T00:38:30;19.42;48.68
65239;SHT30;51827;51.186;6.926;2024-01-27T00:39:31;19.40;48.68
65239;SHT30;51827;51.186;6.926;2024-01-27T00:40:32;19.40;48.71
65239;SHT30;51827;51.186;6.926;2024-01-27T00:41:32;19.39;48.70
65239;SHT30;51827;51.186;6.926;2024-01-27T00:42:32;19.39;48.68
65239;SHT30;51827;51.186;6.926;2024-01-27T00:43:32;19.36;48.69
65239;SHT30;51827;51.186;6.926;2024-01-27T00:44:33;19.39;48.68
65239;SHT30;51827;51.186;6.926;2024-01-27T00:45:33;19.39;48.65
65239;SHT30;51827;51.186;6.926;2024-01-27T00:46:33;19.39;48.65
65239;SHT30;51827;51.186;6.926;2024-01-27T00:47:33;19.40;48.63
65239;SHT30;51827;51.186;6.926;2024-01-27T00:48:34;19.42;48.67
65239;SHT30;51827;51.186;6.926;2024-01-27T00:49:34;19.40;48.62
65239;SHT30;51827;51.186;6.926;2024-01-27T00:50:34;19.40;48.64
65239;SHT30;51827;51.186;6.926;2024-01-27T00:51:34;19.39;48.67
65239;SHT30;51827;51.186;6.926;2024-01-27T00:52:35;19.39;48.65
65239;SHT30;51827;51.186;6.926;2024-01-27T00:53:35;19.42;48.68
65239;SHT30;51827;51.186;6.926;2024-01-27T00:54:35;19.37;48.70
65239;SHT30;51827;51.186;6.926;2024-01-27T00:55:35;19.39;48.70
65239;SHT30;51827;51.186;6.926;2024-01-27T00:56:36;19.39;48.70
65239;SHT30;51827;51.186;6.926;2024-01-27T00:57:37;19.37;48.66
65239;SHT30;51827;51.186;6.926;2024-01-27T00:58:37;19.39;48.68
65239;SHT30;51827;51.186;6.926;2024-01-27T00:59:37;19.39;48.64
65239;SHT30;51827;51.186;6.926;2024-01-27T01:00:38;19.40;48.71
65239;SHT30;51827;51.186;6.926;2024-01-27T01:01:38;19.40;48.69
65239;SHT30;51827;51.186;6.926;2024-01-27T01:02:38;19.39;48.69
65239;SHT30;51827;51.186;6.926;2024-01-27T01:03:38;19.37;48.67
65239;SHT30;51827;51.186;6.926;2024-01-27T01:04:39;19.40;48.66
65239;SHT30;51827;51.186;6.926;2024-01-27T01:05:39;19.39;48.65
65239;SHT30;51827;51.186;6.926;2024-01-27T01:06:40;19.40;48.62
65239;SHT30;51827;51.186;6.926;2024-01-27T01:07:40;19.40;48.68
65239;SHT30;51827;51.186;6.926;2024-01-27T01:08:40;19.42;48.68
65239;SHT30;51827;51.186;6.926;2024-01-27T01:09:41;19.37;48.66
65239;SHT30;51827;51.186;6.926;2024-01-27T01:10:41;19.39;48.65
65239;SHT30;51827;51.186;6.926;2024-01-27T01:11:41;19.37;48.69
65239;SHT30;51827;51.186;6.926;2024-01-27T01:12:41;19.36;48.69
65239;SHT30;51827;51.186;6.926;2024-01-27T01:13:42;19.37;48.64
65239;SHT30;51827;51.186;6.926;2024-01-27T01:14:43;19.39;48.70
65239;SHT30;51827;51.186;6.926;2024-01-27T01:15:43;19.39;48.71
65239;SHT30;51827;51.186;6.926;2024-01-27T01:16:44;19.37;48.70
65239;SHT30;51827;51.186;6.926;2024-01-27T01:17:44;19.37;48.72
65239;SHT30;51827;51.186;6.926;2024-01-27T01:18:44;19.37;48.75
65239;SHT30;51827;51.186;6.926;2024-01-27T01:19:44;19.37;48.73
65239;SHT30;51827;51.186;6.926;2024-01-27T01:20:45;19.34;48.72
65239;SHT30;51827;51.186;6.926;2024-01-27T01:21:45;19.34;48.75
65239;SHT30;51827;51.186;6.926;2024-01-27T01:22:45;19.37;48.72
65239;SHT30;51827;51.186;6.926;2024-01-27T01:23:45;19.37;48.72
65239;SHT30;51827;51.186;6.926;2024-01-27T01:24:46;19.37;48.67
65239;SHT30;51827;51.186;6.926;2024-01-27T01:25:46;19.36;48.73
65239;SHT30;51827;51.186;6.926;2024-01-27T01:26:46;19.34;48.69
65239;SHT30;51827;51.186;6.926;2024-01-27T01:27:46;19.39;48.74
65239;SHT30;51827;51.186;6.926;2024-01-27T01:28:47;19.36;48.73
65239;SHT30;51827;51.186;6.926;2024-01-27T01:29:47;19.36;48.76
65239;SHT30;51827;51.186;6.926;2024-01-27T01:30:47;19.37;48.72
65239;SHT30;51827;51.186;6.926;2024-01-27T01:31:48;19.34;48.68
65239;SHT30;51827;51.186;6.926;2024-01-27T01:32:49;19.34;48.72
65239;SHT30;51827;51.186;6.926;2024-01-27T01:33:49;19.33;48.73
65239;SHT30;51827;51.186;6.926;2024-01-27T01:34:49;19.34;48.70
65239;SHT30;51827;51.186;6.926;2024-01-27T01:35:50;19.34;48.73
65239;SHT30;51827;51.186;6.926;2024-01-27T01:36:50;19.34;48.73
65239;SHT30;51827;51.186;6.926;2024-01-27T01:37:50;19.33;48.69
65239;SHT30;51827;51.186;6.926;2024-01-27T01:38:50;19.32;48.69
65239;SHT30;51827;51.186;6.926;2024-01-27T01:39:51;19.34;48.67
65239;SHT30;51827;51.186;6.926;2024-01-27T01:40:51;19.32;48.70
65239;SHT30;51827;51.186;6.926;2024-01-27T01:41:51;19.36;48.73
65239;SHT30;51827;51.186;6.926;2024-01-27T01:42:51;19.33;48.74
65239;SHT30;51827;51.186;6.926;2024-01-27T01:43:52;19.34;48.68
65239;SHT30;51827;51.186;6.926;2024-01-27T01:44:52;19.34;48.69
65239;SHT30;51827;51.186;6.926;2024-01-27T01:45:53;19.34;48.67
65239;SHT30;51827;51.186;6.926;2024-01-27T01:46:53;19.33;48.67
65239;SHT30;51827;51.186;6.926;2024-01-27T01:47:53;19.33;48.69
65239;SHT30;51827;51.186;6.926;2024-01-27T01:48:54;19.32;48.63
65239;SHT30;51827;51.186;6.926;2024-01-27T01:49:55;19.34;48.69
65239;SHT30;51827;51.186;6.926;2024-01-27T01:50:55;19.33;48.68
65239;SHT30;51827;51.186;6.926;2024-01-27T01:51:56;19.36;48.69
65239;SHT30;51827;51.186;6.926;2024-01-27T01:52:57;19.33;48.67
65239;SHT30;51827;51.186;6.926;2024-01-27T01:53:58;19.33;48.69
65239;SHT30;51827;51.186;6.926;2024-01-27T01:54:58;19.34;48.67
65239;SHT30;51827;51.186;6.926;2024-01-27T01:55:59;19.36;48.64
65239;SHT30;51827;51.186;6.926;2024-01-27T01:56:59;19.32;48.66
65239;SHT30;51827;51.186;6.926;2024-01-27T01:58:01;19.33;48.72
65239;SHT30;51827;51.186;6.926;2024-01-27T01:59:01;19.32;48.69
65239;SHT30;51827;51.186;6.926;2024-01-27T02:00:01;19.33;48.69
65239;SHT30;51827;51.186;6.926;2024-01-27T02:01:02;19.27;48.68
65239;SHT30;51827;51.186;6.926;2024-01-27T02:02:02;19.33;48.66
65239;SHT30;51827;51.186;6.926;2024-01-27T02:03:02;19.32;48.66
65239;SHT30;51827;51.186;6.926;2024-01-27T02:04:04;19.32;48.66
65239;SHT30;51827;51.186;6.926;2024-01-27T02:05:04;19.32;48.67
65239;SHT30;51827;51.186;6.926;2024-01-27T02:06:05;19.32;48.66
65239;SHT30;51827;51.186;6.926;2024-01-27T02:07:06;19.32;48.65
65239;SHT30;51827;51.186;6.926;2024-01-27T02:08:06;19.33;48.67
65239;SHT30;51827;51.186;6.926;2024-01-27T02:09:06;19.30;48.64
65239;SHT30;51827;51.186;6.926;2024-01-27T02:10:13;19.32;48.62
65239;SHT30;51827;51.186;6.926;2024-01-27T02:11:14;19.32;48.64
65239;SHT30;51827;51.186;6.926;2024-01-27T02:12:14;19.32;48.60
65239;SHT30;51827;51.186;6.926;2024-01-27T02:13:24;19.32;48.64
65239;SHT30;51827;51.186;6.926;2024-01-27T02:14:24;19.32;48.62
65239;SHT30;51827;51.186;6.926;2024-01-27T02:15:25;19.30;48.59
65239;SHT30;51827;51.186;6.926;2024-01-27T02:16:26;19.33;48.61
65239;SHT30;51827;51.186;6.926;2024-01-27T02:17:26;19.29;48.61
65239;SHT30;51827;51.186;6.926;2024-01-27T02:18:26;19.30;48.59
65239;SHT30;51827;51.186;6.926;2024-01-27T02:19:26;19.33;48.63
65239;SHT30;51827;51.186;6.926;2024-01-27T02:20:26;19.30;48.59
65239;SHT30;51827;51.186;6.926;2024-01-27T02:21:27;19.30;48.59
65239;SHT30;51827;51.186;6.926;2024-01-27T02:22:27;19.30;48.63
65239;SHT30;51827;51.186;6.926;2024-01-27T02:23:27;19.30;48.58
65239;SHT30;51827;51.186;6.926;2024-01-27T02:24:27;19.30;48.58
65239;SHT30;51827;51.186;6.926;2024-01-27T02:25:28;19.32;48.54
65239;SHT30;51827;51.186;6.926;2024-01-27T02:26:28;19.32;48.57
65239;SHT30;51827;51.186;6.926;2024-01-27T02:27:28;19.29;48.57
65239;SHT30;51827;51.186;6.926;2024-01-27T02:28:29;19.32;48.59
65239;SHT30;51827;51.186;6.926;2024-01-27T02:29:29;19.32;48.58
65239;SHT30;51827;51.186;6.926;2024-01-27T02:30:29;19.30;48.58
65239;SHT30;51827;51.186;6.926;2024-01-27T02:31:30;19.29;48.62
65239;SHT30;51827;51.186;6.926;2024-01-27T02:32:30;19.29;48.52
65239;SHT30;51827;51.186;6.926;2024-01-27T02:33:30;19.29;48.58
65239;SHT30;51827;51.186;6.926;2024-01-27T02:34:30;19.29;48.62
65239;SHT30;51827;51.186;6.926;2024-01-27T02:35:31;19.30;48.60
65239;SHT30;51827;51.186;6.926;2024-01-27T02:36:31;19.29;48.57
65239;SHT30;51827;51.186;6.926;2024-01-27T02:37:31;19.27;48.60
65239;SHT30;51827;51.186;6.926;2024-01-27T02:38:32;19.26;48.57
65239;SHT30;51827;51.186;6.926;2024-01-27T02:39:32;19.27;48.58
65239;SHT30;51827;51.186;6.926;2024-01-27T02:40:32;19.29;48.57
65239;SHT30;51827;51.186;6.926;2024-01-27T02:41:33;19.27;48.57
65239;SHT30;51827;51.186;6.926;2024-01-27T02:42:33;19.29;48.62
65239;SHT30;51827;51.186;6.926;2024-01-27T02:43:34;19.29;48.53
65239;SHT30;51827;51.186;6.926;2024-01-27T02:44:34;19.29;48.57
65239;SHT30;51827;51.186;6.926;2024-01-27T02:45:34;19.27;48.55
65239;SHT30;51827;51.186;6.926;2024-01-27T02:46:34;19.27;48.53
65239;SHT30;51827;51.186;6.926;2024-01-27T02:47:35;19.27;48.60
65239;SHT30;51827;51.186;6.926;2024-01-27T02:48:35;19.27;48.57
65239;SHT30;51827;51.186;6.926;2024-01-27T02:49:35;19.27;48.55
65239;SHT30;51827;51.186;6.926;2024-01-27T02:50:35;19.29;48.58
65239;SHT30;51827;51.186;6.926;2024-01-27T02:51:36;19.27;48.57
65239;SHT30;51827;51.186;6.926;2024-01-27T02:52:36;19.27;48.53
65239;SHT30;51827;51.186;6.926;2024-01-27T02:53:36;19.27;48.51
65239;SHT30;51827;51.186;6.926;2024-01-27T02:54:36;19.27;48.51
65239;SHT30;51827;51.186;6.926;2024-01-27T02:55:37;19.27;48.53
65239;SHT30;51827;51.186;6.926;2024-01-27T02:56:37;19.26;48.51
65239;SHT30;51827;51.186;6.926;2024-01-27T02:57:37;19.27;48.52
65239;SHT30;51827;51.186;6.926;2024-01-27T02:58:37;19.27;48.52
65239;SHT30;51827;51.186;6.926;2024-01-27T02:59:38;19.29;48.53
65239;SHT30;51827;51.186;6.926;2024-01-27T03:00:38;19.26;48.50
65239;SHT30;51827;51.186;6.926;2024-01-27T03:01:39;19.27;48.51
65239;SHT30;51827;51.186;6.926;2024-01-27T03:02:39;19.29;48.51
65239;SHT30;51827;51.186;6.926;2024-01-27T03:03:39;19.26;48.57
65239;SHT30;51827;51.186;6.926;2024-01-27T03:04:39;19.23;48.51
65239;SHT30;51827;51.186;6.926;2024-01-27T03:05:40;19.26;48.50
65239;SHT30;51827;51.186;6.926;2024-01-27T03:06:40;19.26;48.48
65239;SHT30;51827;51.186;6.926;2024-01-27T03:07:41;19.24;48.51
65239;SHT30;51827;51.186;6.926;2024-01-27T03:08:41;19.27;48.52
65239;SHT30;51827;51.186;6.926;2024-01-27T03:09:41;19.26;48.49
65239;SHT30;51827;51.186;6.926;2024-01-27T03:10:41;19.24;48.51
65239;SHT30;51827;51.186;6.926;2024-01-27T03:11:42;19.26;48.48
65239;SHT30;51827;51.186;6.926;2024-01-27T03:12:42;19.23;48.50
65239;SHT30;51827;51.186;6.926;2024-01-27T03:13:42;19.24;48.49
65239;SHT30;51827;51.186;6.926;2024-01-27T03:14:42;19.22;48.44
65239;SHT30;51827;51.186;6.926;2024-01-27T03:15:43;19.24;48.51
65239;SHT30;51827;51.186;6.926;2024-01-27T03:16:43;19.27;48.48
65239;SHT30;51827;51.186;6.926;2024-01-27T03:17:43;19.23;48.46
65239;SHT30;51827;51.186;6.926;2024-01-27T03:18:44;19.26;48.48
65239;SHT30;51827;51.186;6.926;2024-01-27T03:19:44;19.27;48.51
65239;SHT30;51827;51.186;6.926;2024-01-27T03:20:44;19.23;48.49
65239;SHT30;51827;51.186;6.926;2024-01-27T03:21:45;19.24;48.50
65239;SHT30;51827;51.186;6.926;2024-01-27T03:22:45;19.23;48.51
65239;SHT30;51827;51.186;6.926;2024-01-27T03:23:45;19.26;48.50
65239;SHT30;51827;51.186;6.926;2024-01-27T03:24:46;19.23;48.49
65239;SHT30;51827;51.186;6.926;2024-01-27T03:25:46;19.24;48.50
65239;SHT30;51827;51.186;6.926;2024-01-27T03:26:46;19.24;48.49
65239;SHT30;51827;51.186;6.926;2024-01-27T03:27:46;19.23;48.48
65239;SHT30;51827;51.186;6.926;2024-01-27T03:28:47;19.23;48.47
65239;SHT30;51827;51.186;6.926;2024-01-27T03:29:47;19.24;48.46
65239;SHT30;51827;51.186;6.926;2024-01-27T03:30:47;19.23;48.48
65239;SHT30;51827;51.186;6.926;2024-01-27T03:31:47;19.24;48.44
65239;SHT30;51827;51.186;6.926;2024-01-27T03:32:47;19.24;48.43
65239;SHT30;51827;51.186;6.926;2024-01-27T03:33:48;19.24;48.41
65239;SHT30;51827;51.186;6.926;2024-01-27T03:34:48;19.24;48.44
65239;SHT30;51827;51.186;6.926;2024-01-27T03:35:48;19.26;48.44
65239;SHT30;51827;51.186;6.926;2024-01-27T03:36:49;19.26;48.42
65239;SHT30;51827;51.186;6.926;2024-01-27T03:37:50;19.24;48.43
65239;SHT30;51827;51.186;6.926;2024-01-27T03:38:50;19.26;48.42
65239;SHT30;51827;51.186;6.926;2024-01-27T03:39:50;19.24;48.46
65239;SHT30;51827;51.186;6.926;2024-01-27T03:40:50;19.24;48.40
65239;SHT30;51827;51.186;6.926;2024-01-27T03:41:51;19.23;48.42
65239;SHT30;51827;51.186;6.926;2024-01-27T03:42:51;19.23;48.44
65239;SHT30;51827;51.186;6.926;2024-01-27T03:43:51;19.23;48.37
65239;SHT30;51827;51.186;6.926;2024-01-27T03:44:52;19.22;48.46
65239;SHT30;51827;51.186;6.926;2024-01-27T03:45:52;19.23;48.41
65239;SHT30;51827;51.186;6.926;2024-01-27T03:46:52;19.23;48.44
65239;SHT30;51827;51.186;6.926;2024-01-27T03:47:52;19.20;48.40
65239;SHT30;51827;51.186;6.926;2024-01-27T03:48:53;19.22;48.42
65239;SHT30;51827;51.186;6.926;2024-01-27T03:49:53;19.22;48.43
65239;SHT30;51827;51.186;6.926;2024-01-27T03:50:53;19.22;48.41
65239;SHT30;51827;51.186;6.926;2024-01-27T03:51:53;19.22;48.46
65239;SHT30;51827;51.186;6.926;2024-01-27T03:52:54;19.22;48.37
65239;SHT30;51827;51.186;6.926;2024-01-27T03:53:54;19.23;48.42
65239;SHT30;51827;51.186;6.926;2024-01-27T03:54:54;19.22;48.43
65239;SHT30;51827;51.186;6.926;2024-01-27T03:55:55;19.20;48.39
65239;SHT30;51827;51.186;6.926;2024-01-27T03:56:55;19.22;48.33
65239;SHT30;51827;51.186;6.926;2024-01-27T03:57:56;19.22;48.37
65239;SHT30;51827;51.186;6.926;2024-01-27T03:58:56;19.23;48.37
65239;SHT30;51827;51.186;6.926;2024-01-27T03:59:56;19.22;48.38
65239;SHT30;51827;51.186;6.926;2024-01-27T04:00:57;19.23;48.40
65239;SHT30;51827;51.186;6.926;2024-01-27T04:01:57;19.20;48.34
65239;SHT30;51827;51.186;6.926;2024-01-27T04:02:57;19.20;48.40
65239;SHT30;51827;51.186;6.926;2024-01-27T04:03:57;19.22;48.37
65239;SHT30;51827;51.186;6.926;2024-01-27T04:04:58;19.22;48.36
65239;SHT30;51827;51.186;6.926;2024-01-27T04:05:58;19.19;48.36
65239;SHT30;51827;51.186;6.926;2024-01-27T04:06:58;19.22;48.39
65239;SHT30;51827;51.186;6.926;2024-01-27T04:07:58;19.20;48.37
65239;SHT30;51827;51.186;6.926;2024-01-27T04:08:59;19.20;48.38
65239;SHT30;51827;51.186;6.926;2024-01-27T04:09:59;19.22;48.35
65239;SHT30;51827;51.186;6.926;2024-01-27T04:10:59;19.19;48.33
65239;SHT30;51827;51.186;6.926;2024-01-27T04:11:59;19.20;48.31
65239;SHT30;51827;51.186;6.926;2024-01-27T04:13:00;19.20;48.36
65239;SHT30;51827;51.186;6.926;2024-01-27T04:14:00;19.20;48.34
65239;SHT30;51827;51.186;6.926;2024-01-27T04:15:00;19.19;48.35
65239;SHT30;51827;51.186;6.926;2024-01-27T04:16:00;19.20;48.35
65239;SHT30;51827;51.186;6.926;2024-01-27T04:17:01;19.23;48.31
65239;SHT30;51827;51.186;6.926;2024-01-27T04:18:01;19.20;48.35
65239;SHT30;51827;51.186;6.926;2024-01-27T04:19:01;19.20;48.34
65239;SHT30;51827;51.186;6.926;2024-01-27T04:20:02;19.22;48.32
65239;SHT30;51827;51.186;6.926;2024-01-27T04:21:02;19.19;48.34
65239;SHT30;51827;51.186;6.926;2024-01-27T04:22:02;19.23;48.29
65239;SHT30;51827;51.186;6.926;2024-01-27T04:23:03;19.20;48.33
65239;SHT30;51827;51.186;6.926;2024-01-27T04:24:03;19.20;48.33
65239;SHT30;51827;51.186;6.926;2024-01-27T04:25:04;19.19;48.28
65239;SHT30;51827;51.186;6.926;2024-01-27T04:26:05;19.22;48.28
65239;SHT30;51827;51.186;6.926;2024-01-27T04:27:05;19.22;48.34
65239;SHT30;51827;51.186;6.926;2024-01-27T04:28:05;19.19;48.31
65239;SHT30;51827;51.186;6.926;2024-01-27T04:29:05;19.20;48.28
65239;SHT30;51827;51.186;6.926;2024-01-27T04:30:07;19.22;48.32
65239;SHT30;51827;51.186;6.926;2024-01-27T04:31:07;19.20;48.28
65239;SHT30;51827;51.186;6.926;2024-01-27T04:32:07;19.19;48.28
65239;SHT30;51827;51.186;6.926;2024-01-27T04:33:07;19.23;48.26
65239;SHT30;51827;51.186;6.926;2024-01-27T04:34:07;19.19;48.26
65239;SHT30;51827;51.186;6.926;2024-01-27T04:35:09;19.19;48.24
65239;SHT30;51827;51.186;6.926;2024-01-27T04:36:09;19.19;48.27
65239;SHT30;51827;51.186;6.926;2024-01-27T04:37:09;19.20;48.24
65239;SHT30;51827;51.186;6.926;2024-01-27T04:38:09;19.22;48.26
65239;SHT30;51827;51.186;6.926;2024-01-27T04:39:10;19.20;48.22
65239;SHT30;51827;51.186;6.926;2024-01-27T04:40:10;19.22;48.29
65239;SHT30;51827;51.186;6.926;2024-01-27T04:41:10;19.19;48.27
65239;SHT30;51827;51.186;6.926;2024-01-27T04:42:11;19.19;48.26
65239;SHT30;51827;51.186;6.926;2024-01-27T04:43:15;19.19;48.29
65239;SHT30;51827;51.186;6.926;2024-01-27T04:44:15;19.22;48.23
65239;SHT30;51827;51.186;6.926;2024-01-27T04:45:16;19.20;48.28
65239;SHT30;51827;51.186;6.926;2024-01-27T04:46:16;19.16;48.24
65239;SHT30;51827;51.186;6.926;2024-01-27T04:47:16;19.18;48.24
65239;SHT30;51827;51.186;6.926;2024-01-27T04:48:16;19.18;48.27
65239;SHT30;51827;51.186;6.926;2024-01-27T04:49:17;19.18;48.29
65239;SHT30;51827;51.186;6.926;2024-01-27T04:50:17;19.19;48.27
65239;SHT30;51827;51.186;6.926;2024-01-27T04:51:17;19.18;48.22
65239;SHT30;51827;51.186;6.926;2024-01-27T04:52:18;19.16;48.26
65239;SHT30;51827;51.186;6.926;2024-01-27T04:53:18;19.19;48.26
65239;SHT30;51827;51.186;6.926;2024-01-27T04:54:18;19.18;48.29
65239;SHT30;51827;51.186;6.926;2024-01-27T04:55:18;19.18;48.33
65239;SHT30;51827;51.186;6.926;2024-01-27T04:56:18;19.19;48.28
65239;SHT30;51827;51.186;6.926;2024-01-27T04:57:19;19.18;48.27
65239;SHT30;51827;51.186;6.926;2024-01-27T04:58:19;19.20;48.36
65239;SHT30;51827;51.186;6.926;2024-01-27T04:59:19;19.16;48.42
65239;SHT30;51827;51.186;6.926;2024-01-27T05:00:19;19.16;48.41
65239;SHT30;51827;51.186;6.926;2024-01-27T05:01:20;19.18;48.39
65239;SHT30;51827;51.186;6.926;2024-01-27T05:02:20;19.18;48.37
65239;SHT30;51827;51.186;6.926;2024-01-27T05:03:20;19.19;48.29
65239;SHT30;51827;51.186;6.926;2024-01-27T05:04:20;19.19;48.32
65239;SHT30;51827;51.186;6.926;2024-01-27T05:05:21;19.19;48.33
65239;SHT30;51827;51.186;6.926;2024-01-27T05:06:21;19.20;48.27
65239;SHT30;51827;51.186;6.926;2024-01-27T05:07:21;19.18;48.31
65239;SHT30;51827;51.186;6.926;2024-01-27T05:08:21;19.20;48.27
65239;SHT30;51827;51.186;6.926;2024-01-27T05:09:22;19.18;48.27
65239;SHT30;51827;51.186;6.926;2024-01-27T05:10:22;19.18;48.25
65239;SHT30;51827;51.186;6.926;2024-01-27T05:11:30;19.18;48.27
65239;SHT30;51827;51.186;6.926;2024-01-27T05:12:31;19.20;48.24
65239;SHT30;51827;51.186;6.926;2024-01-27T05:13:31;19.16;48.20
65239;SHT30;51827;51.186;6.926;2024-01-27T05:14:31;19.18;48.22
65239;SHT30;51827;51.186;6.926;2024-01-27T05:15:31;19.18;48.23
65239;SHT30;51827;51.186;6.926;2024-01-27T05:16:32;19.18;48.23
65239;SHT30;51827;51.186;6.926;2024-01-27T05:17:32;19.16;48.23
65239;SHT30;51827;51.186;6.926;2024-01-27T05:18:32;19.18;48.27
65239;SHT30;51827;51.186;6.926;2024-01-27T05:19:32;19.16;48.24
65239;SHT30;51827;51.186;6.926;2024-01-27T05:20:33;19.15;48.19
65239;SHT30;51827;51.186;6.926;2024-01-27T05:21:33;19.16;48.24
65239;SHT30;51827;51.186;6.926;2024-01-27T05:22:33;19.16;48.23
65239;SHT30;51827;51.186;6.926;2024-01-27T05:23:33;19.18;48.23
65239;SHT30;51827;51.186;6.926;2024-01-27T05:24:33;19.16;48.23
65239;SHT30;51827;51.186;6.926;2024-01-27T05:25:34;19.15;48.19
65239;SHT30;51827;51.186;6.926;2024-01-27T05:26:34;19.18;48.21
65239;SHT30;51827;51.186;6.926;2024-01-27T05:27:34;19.15;48.23
65239;SHT30;51827;51.186;6.926;2024-01-27T05:28:34;19.15;48.23
65239;SHT30;51827;51.186;6.926;2024-01-27T05:29:37;19.19;48.19
65239;SHT30;51827;51.186;6.926;2024-01-27T05:30:37;19.16;48.18
65239;SHT30;51827;51.186;6.926;2024-01-27T05:31:37;19.16;48.14
65239;SHT30;51827;51.186;6.926;2024-01-27T05:32:37;19.16;48.16
65239;SHT30;51827;51.186;6.926;2024-01-27T05:33:38;19.16;48.19
65239;SHT30;51827;51.186;6.926;2024-01-27T05:34:39;19.15;48.14
65239;SHT30;51827;51.186;6.926;2024-01-27T05:35:39;19.15;48.18
65239;SHT30;51827;51.186;6.926;2024-01-27T05:36:39;19.16;48.13
65239;SHT30;51827;51.186;6.926;2024-01-27T05:37:39;19.15;48.13
65239;SHT30;51827;51.186;6.926;2024-01-27T05:38:40;19.15;48.15
65239;SHT30;51827;51.186;6.926;2024-01-27T05:39:40;19.15;48.13
65239;SHT30;51827;51.186;6.926;2024-01-27T05:40:40;19.15;48.13
65239;SHT30;51827;51.186;6.926;2024-01-27T05:41:40;19.13;48.10
65239;SHT30;51827;51.186;6.926;2024-01-27T05:42:41;19.15;48.16
65239;SHT30;51827;51.186;6.926;2024-01-27T05:43:41;19.18;48.07
65239;SHT30;51827;51.186;6.926;2024-01-27T05:44:41;19.16;48.07
65239;SHT30;51827;51.186;6.926;2024-01-27T05:45:42;19.13;48.07
65239;SHT30;51827;51.186;6.926;2024-01-27T05:46:42;19.16;48.10
65239;SHT30;51827;51.186;6.926;2024-01-27T05:47:42;19.16;48.13
65239;SHT30;51827;51.186;6.926;2024-01-27T05:48:42;19.16;48.12
65239;SHT30;51827;51.186;6.926;2024-01-27T05:49:43;19.16;48.07
65239;SHT30;51827;51.186;6.926;2024-01-27T05:50:43;19.13;48.13
65239;SHT30;51827;51.186;6.926;2024-01-27T05:51:43;19.16;48.09
65239;SHT30;51827;51.186;6.926;2024-01-27T05:52:43;19.18;48.11
65239;SHT30;51827;51.186;6.926;2024-01-27T05:53:44;19.15;48.02
65239;SHT30;51827;51.186;6.926;2024-01-27T05:54:44;19.12;48.05
65239;SHT30;51827;51.186;6.926;2024-01-27T05:55:46;19.15;48.05
65239;SHT30;51827;51.186;6.926;2024-01-27T05:56:46;19.16;48.10
65239;SHT30;51827;51.186;6.926;2024-01-27T05:57:47;19.13;48.07
65239;SHT30;51827;51.186;6.926;2024-01-27T05:58:48;19.15;48.07
65239;SHT30;51827;51.186;6.926;2024-01-27T05:59:48;19.16;48.06
65239;SHT30;51827;51.186;6.926;2024-01-27T06:00:49;19.16;48.08
65239;SHT30;51827;51.186;6.926;2024-01-27T06:01:49;19.15;48.03
65239;SHT30;51827;51.186;6.926;2024-01-27T06:02:49;19.15;48.06
65239;SHT30;51827;51.186;6.926;2024-01-27T06:03:50;19.13;48.04
65239;SHT30;51827;51.186;6.926;2024-01-27T06:04:50;19.12;48.09
65239;SHT30;51827;51.186;6.926;2024-01-27T06:05:50;19.12;48.04
65239;SHT30;51827;51.186;6.926;2024-01-27T06:06:50;19.13;48.05
65239;SHT30;51827;51.186;6.926;2024-01-27T06:07:51;19.15;48.02
65239;SHT30;51827;51.186;6.926;2024-01-27T06:08:51;19.15;48.02
65239;SHT30;51827;51.186;6.926;2024-01-27T06:09:51;19.15;48.04
65239;SHT30;51827;51.186;6.926;2024-01-27T06:10:51;19.16;47.95
65239;SHT30;51827;51.186;6.926;2024-01-27T06:11:51;19.13;48.00
65239;SHT30;51827;51.186;6.926;2024-01-27T06:12:52;19.15;48.02
65239;SHT30;51827;51.186;6.926;2024-01-27T06:13:52;19.15;47.97
65239;SHT30;51827;51.186;6.926;2024-01-27T06:14:52;19.12;47.95
65239;SHT30;51827;51.186;6.926;2024-01-27T06:15:52;19.13;47.98
65239;SHT30;51827;51.186;6.926;2024-01-27T06:16:53;19.13;47.94
65239;SHT30;51827;51.186;6.926;2024-01-27T06:17:53;19.13;48.01
65239;SHT30;51827;51.186;6.926;2024-01-27T06:18:53;19.15;47.94
65239;SHT30;51827;51.186;6.926;2024-01-27T06:19:53;19.15;47.95
65239;SHT30;51827;51.186;6.926;2024-01-27T06:20:54;19.13;47.96